createdAt,value
2023-05-14T00:01:38.096Z,18.55
2023-05-14T00:04:06.462Z,18.83
2023-05-14T00:06:34.561Z,15.95
2023-05-14T00:09:02.749Z,17.92
2023-05-14T00:11:32.230Z,26.58
2023-05-14T00:14:00.096Z,22.88
2023-05-14T00:16:28.074Z,21.75
2023-05-14T00:18:55.968Z,18.90
2023-05-14T00:21:23.981Z,19.25
2023-05-14T00:23:52.006Z,22.13
2023-05-14T00:26:20.487Z,18.40
2023-05-14T00:28:50.491Z,25.75
2023-05-14T00:31:18.430Z,23.27
2023-05-14T00:33:46.680Z,18.15
2023-05-14T00:36:14.560Z,21.83
2023-05-14T00:38:42.816Z,28.92
2023-05-14T00:41:10.687Z,20.63
2023-05-14T00:43:38.554Z,23.27
2023-05-14T00:46:07.979Z,19.40
2023-05-14T00:48:35.957Z,18.27
2023-05-14T00:51:04.487Z,17.85
2023-05-14T00:53:32.616Z,21.52
2023-05-14T00:56:00.820Z,19.23
2023-05-14T00:58:28.810Z,18.42
2023-05-14T01:00:56.835Z,23.52
2023-05-14T01:03:26.406Z,20.98
2023-05-14T01:06:01.121Z,23.55
2023-05-14T01:08:34.336Z,23.92
2023-05-14T01:11:06.555Z,23.02
2023-05-14T01:13:40.143Z,20.92
2023-05-14T01:16:13.501Z,22.52
2023-05-14T01:18:44.677Z,28.05
2023-05-14T01:21:35.888Z,23.88
2023-05-14T01:24:04.293Z,18.50
2023-05-14T01:26:32.521Z,22.75
2023-05-14T01:29:03.852Z,16.90
2023-05-14T01:31:33.121Z,25.15
2023-05-14T01:34:02.167Z,22.88
2023-05-14T01:36:33.017Z,22.17
2023-05-14T01:39:02.008Z,18.70
2023-05-14T01:41:30.933Z,20.70
2023-05-14T01:43:59.094Z,22.63
2023-05-14T01:46:27.057Z,19.92
2023-05-14T01:48:55.078Z,25.90
2023-05-14T01:51:23.019Z,20.75
2023-05-14T01:53:52.425Z,23.40
2023-05-14T01:56:21.797Z,21.73
2023-05-14T01:58:49.919Z,26.80
2023-05-14T02:01:17.861Z,21.55
2023-05-14T02:03:45.918Z,23.77
2023-05-14T02:06:13.809Z,22.42
2023-05-14T02:08:41.818Z,26.35
2023-05-14T02:11:11.538Z,20.95
2023-05-14T02:13:39.764Z,25.65
2023-05-14T02:16:08.303Z,20.58
2023-05-14T02:18:36.264Z,22.13
2023-05-14T02:21:04.202Z,24.23
2023-05-14T02:23:40.996Z,20.50
2023-05-14T02:26:12.976Z,26.55
2023-05-14T02:28:40.992Z,20.17
2023-05-14T02:31:09.226Z,21.40
2023-05-14T02:33:37.411Z,24.15
2023-05-14T02:36:05.616Z,21.27
2023-05-14T02:38:33.667Z,21.48
2023-05-14T02:41:01.608Z,23.10
2023-05-14T02:43:31.050Z,23.00
2023-05-14T02:45:58.844Z,23.88
2023-05-14T02:48:26.839Z,21.48
2023-05-14T02:50:54.772Z,22.38
2023-05-14T02:53:22.684Z,25.08
2023-05-14T02:55:50.749Z,23.10
2023-05-14T02:58:19.131Z,22.52
2023-05-14T03:00:54.778Z,26.52
2023-05-14T03:03:23.435Z,21.05
2023-05-14T03:05:52.000Z,25.52
2023-05-14T03:08:20.150Z,23.63
2023-05-14T03:10:48.314Z,23.30
2023-05-14T03:13:17.968Z,25.95
2023-05-14T03:15:46.966Z,23.17
2023-05-14T03:18:16.477Z,23.33
2023-05-14T03:20:44.448Z,24.05
2023-05-14T03:23:12.539Z,27.85
2023-05-14T03:25:40.477Z,22.60
2023-05-14T03:28:08.868Z,25.23
2023-05-14T03:30:37.103Z,24.45
2023-05-14T03:33:05.231Z,24.38
2023-05-14T03:35:34.535Z,27.92
2023-05-14T03:38:02.598Z,24.20
2023-05-14T03:40:30.689Z,24.58
2023-05-14T03:42:58.682Z,21.58
2023-05-14T03:45:27.077Z,23.25
2023-05-14T03:47:55.291Z,25.48
2023-05-14T03:50:25.720Z,27.60
2023-05-14T03:52:55.377Z,27.00
2023-05-14T03:55:24.097Z,28.05
2023-05-14T03:57:52.250Z,22.45
2023-05-14T04:00:21.462Z,27.33
2023-05-14T04:02:49.759Z,28.90
2023-05-14T04:05:18.204Z,27.58
2023-05-14T04:07:47.084Z,23.55
2023-05-14T04:10:16.605Z,30.48
2023-05-14T04:12:44.528Z,28.40
2023-05-14T04:15:12.958Z,30.30
2023-05-14T04:17:41.269Z,27.33
2023-05-14T04:20:10.375Z,25.33
2023-05-14T04:22:38.535Z,32.85
2023-05-14T04:25:07.444Z,28.95
2023-05-14T04:27:37.040Z,26.92
2023-05-14T04:30:06.545Z,31.52
2023-05-14T04:32:34.497Z,28.20
2023-05-14T04:35:02.533Z,26.23
2023-05-14T04:37:30.893Z,26.13
2023-05-14T04:39:58.947Z,28.83
2023-05-14T04:42:26.882Z,26.60
2023-05-14T04:44:56.066Z,29.88
2023-05-14T04:47:24.096Z,23.40
2023-05-14T04:49:52.080Z,24.42
2023-05-14T04:52:20.423Z,25.85
2023-05-14T04:54:48.367Z,31.13
2023-05-14T04:57:16.474Z,21.13
2023-05-14T04:59:44.535Z,22.88
2023-05-14T05:02:13.928Z,29.25
2023-05-14T05:04:42.078Z,29.77
2023-05-14T05:07:10.228Z,28.63
2023-05-14T05:09:38.192Z,25.05
2023-05-14T05:12:06.899Z,28.05
2023-05-14T05:14:34.875Z,26.23
2023-05-14T05:17:02.722Z,24.92
2023-05-14T05:19:42.510Z,29.20
2023-05-14T05:22:11.996Z,27.77
2023-05-14T05:24:39.910Z,26.50
2023-05-14T05:27:08.139Z,28.17
2023-05-14T05:29:36.578Z,27.55
2023-05-14T05:32:04.619Z,25.55
2023-05-14T05:34:34.195Z,31.63
2023-05-14T05:37:02.407Z,24.08
2023-05-14T05:39:34.991Z,25.15
2023-05-14T05:42:03.399Z,26.83
2023-05-14T05:44:31.410Z,25.95
2023-05-14T05:46:59.724Z,24.98
2023-05-14T05:49:27.727Z,24.77
2023-05-14T05:51:57.076Z,22.85
2023-05-14T05:54:25.950Z,28.17
2023-05-14T05:56:53.871Z,21.92
2023-05-14T05:59:21.777Z,21.27
2023-05-14T06:01:50.026Z,23.27
2023-05-14T06:04:17.954Z,24.30
2023-05-14T06:06:45.829Z,23.05
2023-05-14T06:09:15.088Z,22.00
2023-05-14T06:11:43.054Z,23.23
2023-05-14T06:14:10.969Z,26.05
2023-05-14T06:16:39.145Z,24.38
2023-05-14T06:19:08.461Z,18.70
2023-05-14T06:21:36.543Z,23.58
2023-05-14T06:24:04.454Z,23.48
2023-05-14T06:26:33.823Z,21.75
2023-05-14T06:29:01.784Z,20.60
2023-05-14T06:31:29.793Z,18.95
2023-05-14T06:33:57.661Z,20.00
2023-05-14T06:36:25.917Z,19.52
2023-05-14T06:38:53.877Z,24.00
2023-05-14T06:41:22.812Z,19.83
2023-05-14T06:43:52.213Z,18.52
2023-05-14T06:46:20.158Z,23.33
2023-05-14T06:48:48.596Z,21.23
2023-05-14T06:51:16.958Z,22.25
2023-05-14T06:53:44.967Z,18.05
2023-05-14T06:56:13.640Z,20.40
2023-05-14T06:58:41.784Z,22.55
2023-05-14T07:01:11.315Z,23.67
2023-05-14T07:03:39.495Z,26.52
2023-05-14T07:06:08.062Z,23.95
2023-05-14T07:08:36.256Z,22.83
2023-05-14T07:11:04.461Z,28.58
2023-05-14T07:13:32.517Z,22.20
2023-05-14T07:16:00.632Z,22.35
2023-05-14T07:18:30.530Z,25.35
2023-05-14T07:20:58.658Z,22.00
2023-05-14T07:23:26.868Z,24.50
2023-05-14T07:25:55.186Z,22.05
2023-05-14T07:28:23.077Z,20.13
2023-05-14T07:30:50.990Z,20.50
2023-05-14T07:33:19.053Z,20.75
2023-05-14T07:35:48.457Z,23.50
2023-05-14T07:38:16.711Z,22.02
2023-05-14T07:40:44.640Z,19.63
2023-05-14T07:43:12.857Z,19.67
2023-05-14T07:45:40.810Z,19.70
2023-05-14T07:48:08.778Z,25.33
2023-05-14T07:50:38.059Z,23.13
2023-05-14T07:53:08.325Z,16.60
2023-05-14T07:55:36.437Z,18.52
2023-05-14T07:58:04.318Z,24.80
2023-05-14T08:00:32.392Z,22.50
2023-05-14T08:03:00.636Z,20.52
2023-05-14T08:05:28.916Z,25.13
2023-05-14T08:07:56.863Z,23.77
2023-05-14T08:10:26.717Z,22.25
2023-05-14T08:12:55.113Z,20.80
2023-05-14T08:15:24.014Z,20.33
2023-05-14T08:17:53.364Z,20.08
2023-05-14T08:20:21.444Z,16.38
2023-05-14T08:22:49.489Z,21.08
2023-05-14T08:25:17.527Z,24.73
2023-05-14T08:27:46.927Z,21.90
2023-05-14T08:30:15.559Z,20.30
2023-05-14T08:32:43.549Z,15.65
2023-05-14T08:35:11.773Z,19.38
2023-05-14T08:37:39.857Z,20.20
2023-05-14T08:40:09.611Z,16.98
2023-05-14T08:42:40.604Z,24.83
2023-05-14T08:45:13.078Z,19.67
2023-05-14T08:47:41.053Z,19.13
2023-05-14T08:50:09.528Z,20.73
2023-05-14T08:52:38.298Z,16.58
2023-05-14T08:55:07.152Z,16.30
2023-05-14T08:57:35.503Z,19.98
2023-05-14T09:00:07.333Z,21.05
2023-05-14T09:02:37.023Z,19.38
2023-05-14T09:05:05.567Z,19.55
2023-05-14T09:07:33.540Z,15.50
2023-05-14T09:10:02.759Z,23.92
2023-05-14T09:12:31.183Z,23.92
2023-05-14T09:14:59.171Z,21.00
2023-05-14T09:17:27.644Z,20.35
2023-05-14T09:19:57.092Z,20.73
2023-05-14T09:22:25.071Z,18.95
2023-05-14T09:25:07.196Z,19.00
2023-05-14T09:27:35.299Z,18.20
2023-05-14T09:30:11.005Z,15.38
2023-05-14T09:32:40.319Z,18.38
2023-05-14T09:35:17.341Z,16.85
2023-05-14T09:37:46.889Z,15.10
2023-05-14T09:40:15.705Z,20.30
2023-05-14T09:42:44.179Z,15.70
2023-05-14T09:45:12.510Z,23.77
2023-05-14T09:47:40.686Z,20.15
2023-05-14T09:50:09.593Z,19.13
2023-05-14T09:52:39.505Z,15.98
2023-05-14T09:55:08.373Z,16.25
2023-05-14T09:57:36.831Z,17.08
2023-05-14T10:00:05.516Z,18.25
2023-05-14T10:02:38.277Z,20.42
2023-05-14T10:05:07.526Z,19.47
2023-05-14T10:07:40.406Z,21.13
2023-05-14T10:10:09.969Z,18.73
2023-05-14T10:12:40.137Z,18.27
2023-05-14T10:15:13.448Z,12.93
2023-05-14T10:17:42.641Z,15.45
2023-05-14T10:20:12.679Z,14.13
2023-05-14T10:22:42.217Z,15.38
2023-05-14T10:25:11.117Z,17.45
2023-05-14T10:27:39.554Z,17.65
2023-05-14T10:30:12.705Z,21.50
2023-05-14T10:32:42.041Z,11.85
2023-05-14T10:35:17.180Z,14.88
2023-05-14T10:37:47.419Z,10.85
2023-05-14T10:40:15.637Z,13.95
2023-05-14T10:42:44.651Z,15.77
2023-05-14T10:45:14.104Z,13.48
2023-05-14T10:47:44.430Z,13.05
2023-05-14T10:50:14.380Z,18.13
2023-05-14T10:52:44.040Z,14.55
2023-05-14T10:55:16.150Z,13.30
2023-05-14T10:57:45.588Z,11.52
2023-05-14T11:00:14.890Z,20.50
2023-05-14T11:02:44.646Z,15.35
2023-05-14T11:05:15.944Z,14.80
2023-05-14T11:07:45.283Z,10.27
2023-05-14T11:10:16.627Z,15.73
2023-05-14T11:12:45.639Z,12.65
2023-05-14T11:15:15.263Z,16.63
2023-05-14T11:17:44.405Z,12.98
2023-05-14T11:20:13.747Z,10.82
2023-05-14T11:22:42.639Z,14.55
2023-05-14T11:25:11.512Z,36.47
2023-05-14T11:27:42.352Z,14.20
2023-05-14T11:30:14.716Z,9.55
2023-05-14T11:32:43.307Z,22.80
2023-05-14T11:35:11.284Z,15.15
2023-05-14T11:37:39.505Z,11.48
2023-05-14T11:40:10.427Z,16.90
2023-05-14T11:42:40.039Z,10.80
2023-05-14T11:45:09.259Z,12.50
2023-05-14T11:47:37.137Z,8.82
2023-05-14T11:50:06.795Z,15.38
2023-05-14T11:52:39.403Z,8.68
2023-05-14T11:55:11.748Z,13.43
2023-05-14T11:57:42.338Z,9.13
2023-05-14T12:00:13.534Z,11.90
2023-05-14T12:02:41.720Z,8.55
2023-05-14T12:05:11.705Z,13.73
2023-05-14T12:07:40.688Z,11.38
2023-05-14T12:10:09.866Z,12.85
2023-05-14T12:12:38.035Z,9.90
2023-05-14T12:15:13.902Z,13.07
2023-05-14T12:17:42.345Z,11.05
2023-05-14T12:20:12.498Z,10.25
2023-05-14T12:22:41.680Z,10.15
2023-05-14T12:25:13.671Z,9.93
2023-05-14T12:27:42.455Z,10.90
2023-05-14T12:32:46.483Z,13.07
2023-05-14T12:35:14.625Z,12.32
2023-05-14T12:37:43.018Z,9.65
2023-05-14T12:40:11.886Z,11.10
2023-05-14T12:42:40.142Z,11.25
2023-05-14T12:45:08.960Z,11.40
2023-05-14T12:47:38.282Z,13.95
2023-05-14T12:50:07.588Z,15.23
2023-05-14T12:52:39.469Z,8.70
2023-05-14T12:55:09.107Z,11.13
2023-05-14T12:57:37.322Z,18.73
2023-05-14T13:00:07.960Z,13.90
2023-05-14T13:02:42.684Z,8.75
2023-05-14T13:10:44.800Z,12.00
2023-05-14T13:14:26.203Z,11.77
2023-05-14T13:18:10.218Z,9.48
2023-05-14T13:20:41.279Z,11.30
2023-05-14T13:23:11.029Z,11.98
2023-05-14T13:25:39.311Z,10.80
2023-05-14T13:28:07.394Z,9.90
2023-05-14T13:30:35.664Z,12.77
2023-05-14T13:33:03.950Z,10.95
2023-05-14T13:35:31.884Z,18.42
2023-05-14T13:38:01.213Z,12.65
2023-05-14T13:40:29.142Z,11.05
2023-05-14T13:42:56.994Z,9.32
2023-05-14T13:45:25.106Z,9.70
2023-05-14T13:47:53.398Z,13.77
2023-05-14T13:50:22.342Z,9.40
2023-05-14T13:52:50.299Z,11.32
2023-05-14T13:55:19.749Z,13.75
2023-05-14T13:57:47.755Z,11.55
2023-05-14T14:00:16.477Z,13.23
2023-05-14T14:02:44.451Z,10.15
2023-05-14T14:05:12.618Z,8.20
2023-05-14T14:07:40.807Z,15.30
2023-05-14T14:10:10.327Z,15.60
2023-05-14T14:12:39.789Z,9.05
2023-05-14T14:15:08.957Z,13.73
2023-05-14T14:17:37.168Z,12.48
2023-05-14T14:20:06.691Z,7.22
2023-05-14T14:22:34.808Z,10.50
2023-05-14T14:25:02.871Z,11.13
2023-05-14T14:27:32.273Z,8.55
2023-05-14T14:30:01.563Z,12.20
2023-05-14T14:32:30.494Z,6.57
2023-05-14T14:34:58.414Z,10.10
2023-05-14T14:37:26.655Z,10.98
2023-05-14T14:39:54.626Z,8.10
2023-05-14T14:42:22.476Z,12.65
2023-05-14T14:44:50.451Z,6.95
2023-05-14T14:47:19.838Z,10.48
2023-05-14T14:49:48.090Z,10.35
2023-05-14T14:52:16.173Z,11.68
2023-05-14T14:54:44.321Z,10.02
2023-05-14T14:57:12.375Z,11.13
2023-05-14T14:59:40.506Z,13.85
2023-05-14T15:02:09.326Z,10.85
2023-05-14T15:04:38.948Z,13.90
2023-05-14T15:07:07.004Z,12.30
2023-05-14T15:09:35.097Z,9.43
2023-05-14T15:12:03.177Z,9.68
2023-05-14T15:14:31.032Z,10.15
2023-05-14T15:16:59.184Z,10.68
2023-05-14T15:19:27.044Z,12.20
2023-05-14T15:21:56.621Z,11.80
2023-05-14T15:24:26.230Z,17.45
2023-05-14T15:26:54.283Z,11.25
2023-05-14T15:29:22.526Z,11.73
2023-05-14T15:31:50.527Z,15.02
2023-05-14T15:34:18.802Z,11.95
2023-05-14T15:36:46.758Z,12.07
2023-05-14T15:39:16.176Z,8.20
2023-05-14T15:41:44.031Z,15.77
2023-05-14T15:44:12.042Z,13.15
2023-05-14T15:46:40.044Z,18.02
2023-05-14T15:49:08.015Z,12.30
2023-05-14T15:51:36.253Z,14.23
2023-05-14T15:54:04.202Z,13.77
2023-05-14T15:56:33.402Z,11.05
2023-05-14T15:59:01.600Z,19.15
2023-05-14T16:01:29.657Z,15.00
2023-05-14T16:03:57.703Z,15.63
2023-05-14T16:06:26.881Z,12.73
2023-05-14T16:08:56.108Z,16.00
2023-05-14T16:11:31.337Z,15.02
2023-05-14T16:14:24.349Z,15.48
2023-05-14T16:17:24.694Z,13.30
2023-05-14T16:19:56.783Z,17.33
2023-05-14T16:22:36.367Z,14.50
2023-05-14T16:25:09.081Z,14.32
2023-05-14T16:28:06.314Z,16.73
2023-05-14T16:30:51.319Z,12.07
2023-05-14T16:33:21.445Z,17.10
2023-05-14T16:39:08.353Z,11.98
2023-05-14T16:45:31.576Z,18.40
2023-05-14T16:48:31.411Z,20.33
2023-05-14T16:51:22.764Z,15.75
2023-05-14T16:53:55.716Z,12.93
2023-05-14T16:56:24.482Z,13.68
2023-05-14T16:58:52.363Z,14.80
2023-05-14T17:01:27.049Z,13.63
2023-05-14T17:04:16.530Z,17.60
2023-05-14T17:07:04.142Z,17.90
2023-05-14T17:12:15.036Z,17.50
2023-05-14T17:14:48.241Z,15.93
2023-05-14T17:17:18.573Z,14.77
2023-05-14T17:19:51.451Z,16.50
2023-05-14T17:22:23.080Z,15.63
2023-05-14T17:24:50.934Z,14.50
2023-05-14T17:27:18.970Z,12.43
2023-05-14T17:29:46.937Z,10.57
2023-05-14T17:32:18.919Z,17.55
2023-05-14T17:34:52.801Z,15.32
2023-05-14T17:37:24.554Z,16.88
2023-05-14T17:39:53.655Z,16.63
2023-05-14T17:42:22.028Z,12.32
2023-05-14T17:44:49.856Z,13.93
2023-05-14T17:47:20.683Z,16.70
2023-05-14T17:49:51.032Z,17.02
2023-05-14T17:52:41.614Z,11.90
2023-05-14T17:55:21.124Z,20.20
2023-05-14T17:57:58.030Z,14.75
2023-05-14T18:00:26.368Z,15.98
2023-05-14T18:03:14.314Z,14.88
2023-05-14T18:05:46.169Z,15.60
2023-05-14T18:08:19.619Z,20.45
2023-05-14T18:13:23.738Z,18.63
2023-05-14T18:15:54.274Z,19.07
2023-05-14T18:18:28.875Z,20.20
2023-05-14T18:20:58.267Z,17.88
2023-05-14T18:23:35.244Z,20.52
2023-05-14T18:26:05.696Z,17.88
2023-05-14T18:28:42.655Z,19.55
2023-05-14T18:31:15.804Z,16.77
2023-05-14T18:33:45.420Z,19.30
2023-05-14T18:36:19.107Z,20.70
2023-05-14T18:38:53.011Z,20.73
2023-05-14T18:41:34.293Z,20.38
2023-05-14T18:44:03.266Z,24.40
2023-05-14T18:46:33.282Z,14.38
2023-05-14T18:49:08.136Z,16.90
2023-05-14T18:51:51.467Z,20.48
2023-05-14T18:54:23.907Z,12.50
2023-05-14T18:56:51.770Z,12.38
2023-05-14T18:59:19.652Z,14.80
2023-05-14T19:01:47.730Z,12.05
2023-05-14T19:04:16.020Z,11.48
2023-05-14T19:06:45.425Z,16.20
2023-05-14T19:09:14.804Z,15.48
2023-05-14T19:11:42.688Z,19.88
2023-05-14T19:14:11.523Z,14.10
2023-05-14T19:16:39.360Z,13.90
2023-05-14T19:19:07.514Z,12.50
2023-05-14T19:21:35.744Z,10.30
2023-05-14T19:24:06.026Z,15.32
2023-05-14T19:26:34.078Z,16.60
2023-05-14T19:29:02.169Z,17.30
2023-05-14T19:31:30.224Z,11.18
2023-05-14T19:33:58.482Z,11.80
2023-05-14T19:36:29.527Z,12.68
2023-05-14T19:38:57.759Z,13.75
2023-05-14T19:41:27.783Z,19.90
2023-05-14T19:43:55.939Z,15.85
2023-05-14T19:46:23.916Z,15.27
2023-05-14T19:48:52.351Z,15.13
2023-05-14T19:51:20.288Z,15.25
2023-05-14T19:53:48.283Z,12.00
2023-05-14T19:56:16.218Z,15.98
2023-05-14T19:58:45.641Z,15.57
2023-05-14T20:01:14.627Z,17.25
2023-05-14T20:03:42.714Z,15.27
2023-05-14T20:06:11.511Z,14.88
2023-05-14T20:08:39.898Z,19.58
2023-05-14T20:11:08.162Z,15.65
2023-05-14T20:13:36.773Z,16.13
2023-05-14T20:16:06.870Z,14.48
2023-05-14T20:18:34.967Z,21.13
2023-05-14T20:21:02.880Z,15.05
2023-05-14T20:23:31.022Z,17.25
2023-05-14T20:26:01.879Z,19.15
2023-05-14T20:28:29.966Z,16.63
2023-05-14T20:30:59.090Z,25.55
2023-05-14T20:33:29.282Z,17.30
2023-05-14T20:35:57.176Z,15.63
2023-05-14T20:38:25.794Z,22.92
2023-05-14T20:40:53.699Z,14.77
2023-05-14T20:43:21.574Z,18.77
2023-05-14T20:45:49.573Z,18.42
2023-05-14T20:48:17.798Z,17.73
2023-05-14T20:50:47.084Z,22.33
2023-05-14T20:53:15.071Z,22.05
2023-05-14T20:55:43.044Z,21.35
2023-05-14T20:58:10.931Z,18.63
2023-05-14T21:00:39.210Z,20.00
2023-05-14T21:03:07.263Z,18.52
2023-05-14T21:05:35.254Z,16.33
2023-05-14T21:08:04.693Z,16.30
2023-05-14T21:10:32.714Z,24.17
2023-05-14T21:13:00.781Z,18.70
2023-05-14T21:15:30.630Z,18.85
2023-05-14T21:17:58.557Z,20.17
2023-05-14T21:20:26.567Z,24.50
2023-05-14T21:22:54.437Z,18.38
2023-05-14T21:25:23.946Z,19.25
2023-05-14T21:27:52.010Z,19.10
2023-05-14T21:30:19.989Z,17.17
2023-05-14T21:32:48.030Z,20.52
2023-05-14T21:35:16.059Z,18.98
2023-05-14T21:37:43.956Z,22.52
2023-05-14T21:40:13.240Z,22.48
2023-05-14T21:42:42.646Z,20.33
2023-05-14T21:45:11.417Z,21.77
2023-05-14T21:47:39.616Z,22.25
2023-05-14T21:50:08.691Z,20.23
2023-05-14T21:52:38.310Z,20.92
2023-05-14T21:55:06.946Z,21.00
2023-05-14T21:57:35.003Z,18.98
2023-05-14T22:00:07.937Z,19.92
2023-05-14T22:02:36.086Z,21.77
2023-05-14T22:05:04.195Z,18.75
2023-05-14T22:07:32.842Z,20.33
2023-05-14T22:10:01.392Z,21.67
2023-05-14T22:12:29.438Z,16.55
2023-05-14T22:14:57.349Z,20.50
2023-05-14T22:17:27.979Z,24.55
2023-05-14T22:19:56.256Z,18.65
2023-05-14T22:22:24.115Z,18.08
2023-05-14T22:24:51.906Z,19.92
2023-05-14T22:27:20.012Z,20.17
2023-05-14T22:29:47.841Z,24.23
2023-05-14T22:32:15.818Z,18.88
2023-05-14T22:34:45.167Z,24.05
2023-05-14T22:37:13.128Z,20.40
2023-05-14T22:39:40.997Z,20.55
2023-05-14T22:42:09.280Z,20.98
2023-05-14T22:44:37.530Z,20.13
2023-05-14T22:47:06.439Z,24.30
2023-05-14T22:49:34.481Z,21.83
2023-05-14T22:52:03.922Z,19.42
2023-05-14T22:54:31.979Z,19.95
2023-05-14T22:56:59.981Z,20.58
2023-05-14T22:59:28.146Z,21.15
2023-05-14T23:01:56.091Z,22.40
2023-05-14T23:04:24.176Z,22.05
2023-05-14T23:06:52.238Z,18.85
2023-05-14T23:09:21.510Z,24.30
2023-05-14T23:11:49.650Z,21.33
2023-05-14T23:14:18.068Z,24.75
2023-05-14T23:16:46.258Z,21.60
2023-05-14T23:19:14.170Z,22.48
2023-05-14T23:21:42.334Z,23.88
2023-05-14T23:24:10.421Z,24.67
2023-05-14T23:26:39.993Z,24.20
2023-05-14T23:29:07.939Z,20.30
2023-05-14T23:31:35.833Z,23.90
2023-05-14T23:34:03.989Z,24.90
2023-05-14T23:36:32.644Z,25.10
2023-05-14T23:39:00.767Z,23.48
2023-05-14T23:41:28.596Z,23.30
2023-05-14T23:43:57.833Z,27.67
2023-05-14T23:46:26.022Z,25.92
2023-05-14T23:48:57.014Z,22.23
2023-05-14T23:51:25.331Z,25.85
2023-05-14T23:53:58.223Z,29.63
2023-05-14T23:56:27.560Z,25.73
2023-05-14T23:58:56.906Z,26.25
